Manfred, North Dakota
Current Conditions -  °F | °C
As of 8:35 AM on Thursday 27 Nov 2014 (Local Time) from K5H4 Reporting Station
Clear Clear  
Wind Chill: -22°   Ceiling: Unl
Heat Index: -8°   Visibility: 10mi
Dew Point: -11°   Wind: 7mph
Humidity: 84%   Direction: 170°S
Pressure: 30.34"   Gusts: NA
Location:  47.7822°N, 99.8441°W
Report Text: K5H4 271435Z AUTO 17006KT 10SM CLR M22/M24 A3034 RMK AO2
Loading
Personal Weather Stations






























Interactive Weather Map New forecast layout! Learn more

10-Day Weather Forecast

Advertisements
Track Severe Weather on mobile